Accueil
METAR-TAF:

METAR-TAF

Aéroports :

Aéroport Agen-La Garenne

Agen, France

latitude: 44-11N, longitude: 000-36E, altitude: 61 m

Observation

Le bulletin a été fait il y a 17 minutes, à 03:00 UTC
Vent 4 kt de ouest/sud-ouest, variant entre sud/sud-ouest et ouest
Température 19°C
Humidité 83%
Pression 1013 hPa
Visibilité 10 km ou plus
pas de nuages en-dessous de 1500 mètres et pas de cumulonimbus.

METAR: LFBA 060300Z AUTO 24004KT 210V270 CAVOK 19/16 Q1013

Heure: 05:17 (03:17 UTC)

Prévision

Le bulletin a été fait il y a 13 heures et 17 minutes, à 14:00 UTC
Prévision valable du 05 à 15 UTC au 05 à 24 UTC
Vent 10 kt de ouest
Visibilité 10 km ou plus
Nuages fragmentés à une hauteur de 4000 ft

TAF: LFBA 051400Z 0515/0524 27010KT 9999 BKN040

Observations et prévisions météorologiques de plus de 4000 aéroports (messages METAR et TAF).

Les stations disponibles sont représentées par des disques jaunes et rouges sur la carte.

Passer la souris dessus pour voir le nom de la station.

Cliquer dessus pour voir les observations et prévisions météorologiques.

Pour changer de carte: cliquez sur les boutons verts avec une croix noire pour zoomer, sur le bouton vert avec un tiret pour effectuer un zoom arrière, ou sur les flèches vertes pour les cartes adjacentes.


METAR-TAF: